sensor_id;sensor_type;location;lat;lon;timestamp;P1;durP1;ratioP1;P2;durP2;ratioP2
58306;SDS011;44116;50.884;4.768;2023-08-01T00:01:20;2.5;;;0.9;;
58306;SDS011;44116;50.884;4.768;2023-08-01T00:03:20;1.7;;;1.0;;
58306;SDS011;44116;50.884;4.768;2023-08-01T00:07:20;3.4;;;1.2;;
58306;SDS011;44116;50.884;4.768;2023-08-01T00:09:20;1.6;;;1.0;;
58306;SDS011;44116;50.884;4.768;2023-08-01T00:11:20;2.6;;;1.2;;
58306;SDS011;44116;50.884;4.768;2023-08-01T00:13:20;3.3;;;1.3;;
58306;SDS011;44116;50.884;4.768;2023-08-01T00:15:20;1.8;;;1.0;;
58306;SDS011;44116;50.884;4.768;2023-08-01T00:17:20;3.9;;;1.1;;
58306;SDS011;44116;50.884;4.768;2023-08-01T00:21:19;3.4;;;1.3;;
58306;SDS011;44116;50.884;4.768;2023-08-01T00:23:19;3.0;;;1.2;;
58306;SDS011;44116;50.884;4.768;2023-08-01T00:25:19;2.8;;;1.3;;
58306;SDS011;44116;50.884;4.768;2023-08-01T00:27:19;2.6;;;1.1;;
58306;SDS011;44116;50.884;4.768;2023-08-01T00:29:19;3.3;;;1.3;;
58306;SDS011;44116;50.884;4.768;2023-08-01T00:31:19;3.5;;;1.2;;
58306;SDS011;44116;50.884;4.768;2023-08-01T00:33:19;3.1;;;1.6;;
58306;SDS011;44116;50.884;4.768;2023-08-01T00:35:19;3.6;;;1.3;;
58306;SDS011;44116;50.884;4.768;2023-08-01T00:37:19;5.2;;;1.4;;
58306;SDS011;44116;50.884;4.768;2023-08-01T00:39:19;4.6;;;1.3;;
58306;SDS011;44116;50.884;4.768;2023-08-01T00:41:19;5.6;;;1.5;;
58306;SDS011;44116;50.884;4.768;2023-08-01T00:45:18;5.3;;;1.8;;
58306;SDS011;44116;50.884;4.768;2023-08-01T00:49:19;2.8;;;1.5;;
58306;SDS011;44116;50.884;4.768;2023-08-01T00:53:19;4.7;;;1.7;;
58306;SDS011;44116;50.884;4.768;2023-08-01T00:55:18;4.2;;;1.6;;
58306;SDS011;44116;50.884;4.768;2023-08-01T00:57:18;3.6;;;1.9;;
58306;SDS011;44116;50.884;4.768;2023-08-01T00:59:18;3.8;;;1.7;;
58306;SDS011;44116;50.884;4.768;2023-08-01T01:01:18;6.6;;;1.8;;
58306;SDS011;44116;50.884;4.768;2023-08-01T01:03:18;5.7;;;2.2;;
58306;SDS011;44116;50.884;4.768;2023-08-01T01:05:19;4.3;;;1.9;;
58306;SDS011;44116;50.884;4.768;2023-08-01T01:07:19;5.6;;;2.1;;
58306;SDS011;44116;50.884;4.768;2023-08-01T01:09:19;5.9;;;2.0;;
58306;SDS011;44116;50.884;4.768;2023-08-01T01:13:17;4.9;;;2.2;;
58306;SDS011;44116;50.884;4.768;2023-08-01T01:17:17;4.2;;;2.1;;
58306;SDS011;44116;50.884;4.768;2023-08-01T01:19:17;4.9;;;1.9;;
58306;SDS011;44116;50.884;4.768;2023-08-01T01:23:17;5.0;;;2.2;;
58306;SDS011;44116;50.884;4.768;2023-08-01T01:25:18;6.4;;;1.9;;
58306;SDS011;44116;50.884;4.768;2023-08-01T01:27:17;5.4;;;2.2;;
58306;SDS011;44116;50.884;4.768;2023-08-01T01:31:17;6.4;;;2.5;;
58306;SDS011;44116;50.884;4.768;2023-08-01T01:33:17;4.0;;;2.2;;
58306;SDS011;44116;50.884;4.768;2023-08-01T01:35:16;5.0;;;2.4;;
58306;SDS011;44116;50.884;4.768;2023-08-01T01:37:16;4.7;;;2.5;;
58306;SDS011;44116;50.884;4.768;2023-08-01T01:39:16;4.7;;;2.6;;
58306;SDS011;44116;50.884;4.768;2023-08-01T01:41:16;8.4;;;2.7;;
58306;SDS011;44116;50.884;4.768;2023-08-01T01:43:16;5.6;;;2.4;;
58306;SDS011;44116;50.884;4.768;2023-08-01T01:45:16;6.0;;;2.7;;
58306;SDS011;44116;50.884;4.768;2023-08-01T01:47:17;7.8;;;3.0;;
58306;SDS011;44116;50.884;4.768;2023-08-01T01:49:16;7.1;;;2.9;;
58306;SDS011;44116;50.884;4.768;2023-08-01T01:55:15;6.0;;;2.7;;
58306;SDS011;44116;50.884;4.768;2023-08-01T01:57:15;7.4;;;2.9;;
58306;SDS011;44116;50.884;4.768;2023-08-01T02:01:15;7.7;;;3.1;;
58306;SDS011;44116;50.884;4.768;2023-08-01T02:05:15;6.8;;;3.0;;
58306;SDS011;44116;50.884;4.768;2023-08-01T02:07:15;7.6;;;3.2;;
58306;SDS011;44116;50.884;4.768;2023-08-01T02:09:15;8.7;;;3.0;;
58306;SDS011;44116;50.884;4.768;2023-08-01T02:11:15;7.5;;;3.3;;
58306;SDS011;44116;50.884;4.768;2023-08-01T02:13:15;9.5;;;3.4;;
58306;SDS011;44116;50.884;4.768;2023-08-01T02:15:14;7.1;;;3.3;;
58306;SDS011;44116;50.884;4.768;2023-08-01T02:17:14;10.3;;;3.1;;
58306;SDS011;44116;50.884;4.768;2023-08-01T02:19:14;8.2;;;3.2;;
58306;SDS011;44116;50.884;4.768;2023-08-01T02:21:14;9.8;;;3.4;;
58306;SDS011;44116;50.884;4.768;2023-08-01T02:23:14;10.6;;;3.6;;
58306;SDS011;44116;50.884;4.768;2023-08-01T02:27:14;6.3;;;3.0;;
58306;SDS011;44116;50.884;4.768;2023-08-01T02:29:14;9.6;;;3.6;;
58306;SDS011;44116;50.884;4.768;2023-08-01T02:33:13;8.3;;;3.1;;
58306;SDS011;44116;50.884;4.768;2023-08-01T02:35:14;8.3;;;3.7;;
58306;SDS011;44116;50.884;4.768;2023-08-01T02:37:13;8.9;;;3.5;;
58306;SDS011;44116;50.884;4.768;2023-08-01T02:39:13;7.0;;;3.1;;
58306;SDS011;44116;50.884;4.768;2023-08-01T02:41:13;9.0;;;3.5;;
58306;SDS011;44116;50.884;4.768;2023-08-01T02:43:13;9.7;;;3.0;;
58306;SDS011;44116;50.884;4.768;2023-08-01T02:45:13;8.3;;;3.4;;
58306;SDS011;44116;50.884;4.768;2023-08-01T02:47:13;9.6;;;3.8;;
58306;SDS011;44116;50.884;4.768;2023-08-01T02:49:13;9.9;;;3.3;;
58306;SDS011;44116;50.884;4.768;2023-08-01T02:51:13;9.9;;;3.4;;
58306;SDS011;44116;50.884;4.768;2023-08-01T02:53:13;8.1;;;3.9;;
58306;SDS011;44116;50.884;4.768;2023-08-01T02:55:13;9.2;;;3.5;;
58306;SDS011;44116;50.884;4.768;2023-08-01T02:59:12;9.9;;;3.4;;
58306;SDS011;44116;50.884;4.768;2023-08-01T03:01:12;8.2;;;3.3;;
58306;SDS011;44116;50.884;4.768;2023-08-01T03:03:12;8.5;;;3.6;;
58306;SDS011;44116;50.884;4.768;2023-08-01T03:05:12;10.4;;;4.1;;
58306;SDS011;44116;50.884;4.768;2023-08-01T03:07:12;7.3;;;3.4;;
58306;SDS011;44116;50.884;4.768;2023-08-01T03:09:12;9.2;;;3.7;;
58306;SDS011;44116;50.884;4.768;2023-08-01T03:11:12;9.7;;;4.0;;
58306;SDS011;44116;50.884;4.768;2023-08-01T03:13:12;10.0;;;3.8;;
58306;SDS011;44116;50.884;4.768;2023-08-01T03:15:12;11.4;;;4.6;;
58306;SDS011;44116;50.884;4.768;2023-08-01T03:17:11;8.6;;;4.1;;
58306;SDS011;44116;50.884;4.768;2023-08-01T03:21:11;11.0;;;4.5;;
58306;SDS011;44116;50.884;4.768;2023-08-01T03:23:11;8.4;;;4.2;;
58306;SDS011;44116;50.884;4.768;2023-08-01T03:25:11;9.1;;;4.0;;
58306;SDS011;44116;50.884;4.768;2023-08-01T03:27:11;11.0;;;4.7;;
58306;SDS011;44116;50.884;4.768;2023-08-01T03:29:11;10.4;;;4.3;;
58306;SDS011;44116;50.884;4.768;2023-08-01T03:31:11;9.9;;;4.1;;
58306;SDS011;44116;50.884;4.768;2023-08-01T03:33:11;11.4;;;4.7;;
58306;SDS011;44116;50.884;4.768;2023-08-01T03:37:11;9.1;;;4.5;;
58306;SDS011;44116;50.884;4.768;2023-08-01T03:43:10;8.7;;;4.3;;
58306;SDS011;44116;50.884;4.768;2023-08-01T03:45:10;11.0;;;4.5;;
58306;SDS011;44116;50.884;4.768;2023-08-01T03:47:10;11.2;;;4.9;;
58306;SDS011;44116;50.884;4.768;2023-08-01T03:49:10;11.1;;;5.0;;
58306;SDS011;44116;50.884;4.768;2023-08-01T03:51:10;9.8;;;4.6;;
58306;SDS011;44116;50.884;4.768;2023-08-01T03:53:10;10.3;;;4.7;;
58306;SDS011;44116;50.884;4.768;2023-08-01T03:55:10;9.0;;;4.6;;
58306;SDS011;44116;50.884;4.768;2023-08-01T03:57:10;13.7;;;5.2;;
58306;SDS011;44116;50.884;4.768;2023-08-01T03:59:11;11.5;;;5.1;;
58306;SDS011;44116;50.884;4.768;2023-08-01T04:01:09;14.6;;;4.7;;
58306;SDS011;44116;50.884;4.768;2023-08-01T04:03:09;12.8;;;4.9;;
58306;SDS011;44116;50.884;4.768;2023-08-01T04:05:10;12.2;;;5.4;;
58306;SDS011;44116;50.884;4.768;2023-08-01T04:07:09;10.8;;;4.9;;
58306;SDS011;44116;50.884;4.768;2023-08-01T04:09:09;13.6;;;5.1;;
58306;SDS011;44116;50.884;4.768;2023-08-01T04:11:09;18.9;;;5.7;;
58306;SDS011;44116;50.884;4.768;2023-08-01T04:13:09;13.5;;;4.9;;
58306;SDS011;44116;50.884;4.768;2023-08-01T04:15:09;13.7;;;5.2;;
58306;SDS011;44116;50.884;4.768;2023-08-01T04:17:09;14.4;;;5.8;;
58306;SDS011;44116;50.884;4.768;2023-08-01T04:19:08;16.2;;;5.6;;
58306;SDS011;44116;50.884;4.768;2023-08-01T04:21:09;12.1;;;5.2;;
58306;SDS011;44116;50.884;4.768;2023-08-01T04:23:08;11.2;;;4.9;;
58306;SDS011;44116;50.884;4.768;2023-08-01T04:25:08;10.3;;;4.8;;
58306;SDS011;44116;50.884;4.768;2023-08-01T04:27:08;11.6;;;5.5;;
58306;SDS011;44116;50.884;4.768;2023-08-01T04:29:08;10.5;;;4.6;;
58306;SDS011;44116;50.884;4.768;2023-08-01T04:31:08;13.1;;;5.4;;
58306;SDS011;44116;50.884;4.768;2023-08-01T04:33:08;12.8;;;5.3;;
58306;SDS011;44116;50.884;4.768;2023-08-01T04:35:08;12.2;;;4.9;;
58306;SDS011;44116;50.884;4.768;2023-08-01T04:37:08;10.8;;;5.0;;
58306;SDS011;44116;50.884;4.768;2023-08-01T04:39:08;14.2;;;4.7;;
58306;SDS011;44116;50.884;4.768;2023-08-01T04:41:08;11.0;;;4.8;;
58306;SDS011;44116;50.884;4.768;2023-08-01T04:43:08;13.6;;;5.0;;
58306;SDS011;44116;50.884;4.768;2023-08-01T04:45:08;13.6;;;5.2;;
58306;SDS011;44116;50.884;4.768;2023-08-01T04:47:07;12.9;;;5.3;;
58306;SDS011;44116;50.884;4.768;2023-08-01T04:49:07;12.6;;;5.2;;
58306;SDS011;44116;50.884;4.768;2023-08-01T04:51:07;14.6;;;5.9;;
58306;SDS011;44116;50.884;4.768;2023-08-01T04:53:07;15.7;;;5.8;;
58306;SDS011;44116;50.884;4.768;2023-08-01T04:55:07;12.9;;;5.7;;
58306;SDS011;44116;50.884;4.768;2023-08-01T04:59:07;10.7;;;5.0;;
58306;SDS011;44116;50.884;4.768;2023-08-01T05:01:07;12.5;;;5.8;;
58306;SDS011;44116;50.884;4.768;2023-08-01T05:03:06;12.8;;;5.9;;
58306;SDS011;44116;50.884;4.768;2023-08-01T05:05:07;12.7;;;6.0;;
58306;SDS011;44116;50.884;4.768;2023-08-01T05:09:06;14.5;;;6.2;;
58306;SDS011;44116;50.884;4.768;2023-08-01T05:11:06;12.0;;;5.8;;
58306;SDS011;44116;50.884;4.768;2023-08-01T05:13:06;18.8;;;6.5;;
58306;SDS011;44116;50.884;4.768;2023-08-01T05:15:06;13.3;;;5.8;;
58306;SDS011;44116;50.884;4.768;2023-08-01T05:17:06;15.7;;;6.4;;
58306;SDS011;44116;50.884;4.768;2023-08-01T05:21:06;15.8;;;6.3;;
58306;SDS011;44116;50.884;4.768;2023-08-01T05:25:06;16.0;;;6.6;;
58306;SDS011;44116;50.884;4.768;2023-08-01T05:27:06;14.6;;;5.9;;
58306;SDS011;44116;50.884;4.768;2023-08-01T05:31:05;13.9;;;6.6;;
58306;SDS011;44116;50.884;4.768;2023-08-01T05:33:05;13.3;;;6.1;;
58306;SDS011;44116;50.884;4.768;2023-08-01T05:35:06;13.3;;;5.8;;
58306;SDS011;44116;50.884;4.768;2023-08-01T05:37:05;13.7;;;6.4;;
58306;SDS011;44116;50.884;4.768;2023-08-01T05:41:05;12.8;;;5.7;;
58306;SDS011;44116;50.884;4.768;2023-08-01T05:43:05;12.2;;;6.1;;
58306;SDS011;44116;50.884;4.768;2023-08-01T05:45:05;12.2;;;5.7;;
58306;SDS011;44116;50.884;4.768;2023-08-01T05:47:05;13.8;;;6.4;;
58306;SDS011;44116;50.884;4.768;2023-08-01T05:51:04;15.0;;;6.7;;
58306;SDS011;44116;50.884;4.768;2023-08-01T05:53:04;13.6;;;6.4;;
58306;SDS011;44116;50.884;4.768;2023-08-01T05:55:05;16.8;;;5.7;;
58306;SDS011;44116;50.884;4.768;2023-08-01T05:57:05;14.0;;;6.0;;
58306;SDS011;44116;50.884;4.768;2023-08-01T05:59:04;14.2;;;5.3;;
58306;SDS011;44116;50.884;4.768;2023-08-01T06:01:05;10.9;;;5.4;;
58306;SDS011;44116;50.884;4.768;2023-08-01T06:05:05;12.4;;;5.7;;
58306;SDS011;44116;50.884;4.768;2023-08-01T06:07:04;14.2;;;6.3;;
58306;SDS011;44116;50.884;4.768;2023-08-01T06:09:04;13.5;;;5.9;;
58306;SDS011;44116;50.884;4.768;2023-08-01T06:11:04;13.2;;;5.7;;
58306;SDS011;44116;50.884;4.768;2023-08-01T06:13:03;12.0;;;6.3;;
58306;SDS011;44116;50.884;4.768;2023-08-01T06:15:04;13.1;;;5.9;;
58306;SDS011;44116;50.884;4.768;2023-08-01T06:17:04;12.5;;;5.7;;
58306;SDS011;44116;50.884;4.768;2023-08-01T06:19:03;13.1;;;5.9;;
58306;SDS011;44116;50.884;4.768;2023-08-01T06:21:03;15.2;;;5.8;;
58306;SDS011;44116;50.884;4.768;2023-08-01T06:23:03;14.2;;;6.3;;
58306;SDS011;44116;50.884;4.768;2023-08-01T06:25:03;15.1;;;6.4;;
58306;SDS011;44116;50.884;4.768;2023-08-01T06:27:03;16.3;;;6.3;;
58306;SDS011;44116;50.884;4.768;2023-08-01T06:31:03;15.0;;;6.6;;
58306;SDS011;44116;50.884;4.768;2023-08-01T06:33:02;13.9;;;6.3;;
58306;SDS011;44116;50.884;4.768;2023-08-01T06:37:03;12.7;;;6.1;;
58306;SDS011;44116;50.884;4.768;2023-08-01T06:39:02;13.3;;;6.4;;
58306;SDS011;44116;50.884;4.768;2023-08-01T06:41:02;15.0;;;6.2;;
58306;SDS011;44116;50.884;4.768;2023-08-01T06:45:02;15.2;;;5.9;;
58306;SDS011;44116;50.884;4.768;2023-08-01T06:47:02;14.2;;;6.3;;
58306;SDS011;44116;50.884;4.768;2023-08-01T06:49:02;12.1;;;6.0;;
58306;SDS011;44116;50.884;4.768;2023-08-01T06:51:02;12.9;;;5.6;;
58306;SDS011;44116;50.884;4.768;2023-08-01T06:53:02;16.6;;;6.2;;
58306;SDS011;44116;50.884;4.768;2023-08-01T06:55:02;15.1;;;5.9;;
58306;SDS011;44116;50.884;4.768;2023-08-01T06:57:01;12.7;;;5.5;;
58306;SDS011;44116;50.884;4.768;2023-08-01T06:59:01;12.0;;;5.7;;
58306;SDS011;44116;50.884;4.768;2023-08-01T07:01:01;12.7;;;5.4;;
58306;SDS011;44116;50.884;4.768;2023-08-01T07:03:01;16.6;;;6.4;;
58306;SDS011;44116;50.884;4.768;2023-08-01T07:07:01;15.5;;;6.1;;
58306;SDS011;44116;50.884;4.768;2023-08-01T07:09:01;15.9;;;6.3;;
58306;SDS011;44116;50.884;4.768;2023-08-01T07:11:01;15.7;;;6.7;;
58306;SDS011;44116;50.884;4.768;2023-08-01T07:13:01;15.6;;;6.5;;
58306;SDS011;44116;50.884;4.768;2023-08-01T07:15:01;13.0;;;6.1;;
58306;SDS011;44116;50.884;4.768;2023-08-01T07:17:01;16.3;;;6.9;;
58306;SDS011;44116;50.884;4.768;2023-08-01T07:19:01;13.5;;;6.5;;
58306;SDS011;44116;50.884;4.768;2023-08-01T07:23:01;12.7;;;6.3;;
58306;SDS011;44116;50.884;4.768;2023-08-01T07:27:00;15.1;;;7.1;;
58306;SDS011;44116;50.884;4.768;2023-08-01T07:29:00;14.6;;;6.5;;
58306;SDS011;44116;50.884;4.768;2023-08-01T07:31:01;15.8;;;6.6;;
58306;SDS011;44116;50.884;4.768;2023-08-01T07:33:00;13.8;;;5.8;;
58306;SDS011;44116;50.884;4.768;2023-08-01T07:35:01;13.5;;;6.1;;
58306;SDS011;44116;50.884;4.768;2023-08-01T07:37:00;15.0;;;6.0;;
58306;SDS011;44116;50.884;4.768;2023-08-01T07:39:00;15.6;;;5.4;;
58306;SDS011;44116;50.884;4.768;2023-08-01T07:41:02;10.9;;;5.5;;
58306;SDS011;44116;50.884;4.768;2023-08-01T07:43:00;14.1;;;5.6;;
58306;SDS011;44116;50.884;4.768;2023-08-01T07:45:00;15.2;;;5.1;;
58306;SDS011;44116;50.884;4.768;2023-08-01T07:47:00;13.0;;;4.9;;
58306;SDS011;44116;50.884;4.768;2023-08-01T07:49:00;11.3;;;4.7;;
58306;SDS011;44116;50.884;4.768;2023-08-01T07:51:00;10.3;;;4.6;;
58306;SDS011;44116;50.884;4.768;2023-08-01T07:53:00;12.9;;;4.9;;
58306;SDS011;44116;50.884;4.768;2023-08-01T07:55:00;11.5;;;5.0;;
58306;SDS011;44116;50.884;4.768;2023-08-01T07:57:00;11.1;;;4.9;;
58306;SDS011;44116;50.884;4.768;2023-08-01T07:58:59;9.1;;;4.5;;
58306;SDS011;44116;50.884;4.768;2023-08-01T08:01:02;11.1;;;4.9;;
58306;SDS011;44116;50.884;4.768;2023-08-01T08:04:59;8.8;;;4.1;;
58306;SDS011;44116;50.884;4.768;2023-08-01T08:06:59;12.8;;;4.6;;
58306;SDS011;44116;50.884;4.768;2023-08-01T08:08:59;13.2;;;4.8;;
58306;SDS011;44116;50.884;4.768;2023-08-01T08:10:59;14.1;;;4.3;;
58306;SDS011;44116;50.884;4.768;2023-08-01T08:12:59;13.1;;;4.8;;
58306;SDS011;44116;50.884;4.768;2023-08-01T08:14:59;11.9;;;4.4;;
58306;SDS011;44116;50.884;4.768;2023-08-01T08:16:59;11.1;;;4.8;;
58306;SDS011;44116;50.884;4.768;2023-08-01T08:18:59;10.8;;;5.0;;
58306;SDS011;44116;50.884;4.768;2023-08-01T08:20:59;11.8;;;4.8;;
58306;SDS011;44116;50.884;4.768;2023-08-01T08:22:59;13.3;;;4.9;;
58306;SDS011;44116;50.884;4.768;2023-08-01T08:24:59;13.3;;;5.2;;
58306;SDS011;44116;50.884;4.768;2023-08-01T08:26:59;12.3;;;4.7;;
58306;SDS011;44116;50.884;4.768;2023-08-01T08:28:59;11.5;;;5.2;;
58306;SDS011;44116;50.884;4.768;2023-08-01T08:32:59;14.0;;;5.6;;
58306;SDS011;44116;50.884;4.768;2023-08-01T08:34:58;13.0;;;5.7;;
58306;SDS011;44116;50.884;4.768;2023-08-01T08:36:58;12.5;;;5.8;;
58306;SDS011;44116;50.884;4.768;2023-08-01T08:38:59;15.0;;;5.6;;
58306;SDS011;44116;50.884;4.768;2023-08-01T08:43:01;11.9;;;4.9;;
58306;SDS011;44116;50.884;4.768;2023-08-01T08:47:02;12.8;;;4.8;;
58306;SDS011;44116;50.884;4.768;2023-08-01T08:48:59;14.4;;;4.7;;
58306;SDS011;44116;50.884;4.768;2023-08-01T08:52:58;12.2;;;4.6;;
58306;SDS011;44116;50.884;4.768;2023-08-01T08:54:59;10.2;;;4.0;;
58306;SDS011;44116;50.884;4.768;2023-08-01T08:56:58;14.3;;;3.9;;
58306;SDS011;44116;50.884;4.768;2023-08-01T08:58:58;10.0;;;4.0;;
58306;SDS011;44116;50.884;4.768;2023-08-01T09:01:00;11.8;;;4.2;;
58306;SDS011;44116;50.884;4.768;2023-08-01T09:02:58;9.5;;;3.8;;
58306;SDS011;44116;50.884;4.768;2023-08-01T09:04:58;10.4;;;4.1;;
58306;SDS011;44116;50.884;4.768;2023-08-01T09:07:02;11.9;;;3.7;;
58306;SDS011;44116;50.884;4.768;2023-08-01T09:10:58;12.9;;;3.6;;
58306;SDS011;44116;50.884;4.768;2023-08-01T09:12:58;9.3;;;3.3;;
58306;SDS011;44116;50.884;4.768;2023-08-01T09:17:05;10.4;;;4.0;;
58306;SDS011;44116;50.884;4.768;2023-08-01T09:18:58;10.3;;;3.2;;
58306;SDS011;44116;50.884;4.768;2023-08-01T09:20:59;11.6;;;3.3;;
58306;SDS011;44116;50.884;4.768;2023-08-01T09:22:58;8.3;;;3.4;;
58306;SDS011;44116;50.884;4.768;2023-08-01T09:24:58;10.5;;;3.3;;
58306;SDS011;44116;50.884;4.768;2023-08-01T09:27:03;6.9;;;2.8;;
58306;SDS011;44116;50.884;4.768;2023-08-01T09:28:58;8.1;;;2.9;;
58306;SDS011;44116;50.884;4.768;2023-08-01T09:30:58;8.7;;;2.8;;
58306;SDS011;44116;50.884;4.768;2023-08-01T09:34:58;6.8;;;2.3;;
58306;SDS011;44116;50.884;4.768;2023-08-01T09:36:59;6.9;;;2.5;;
58306;SDS011;44116;50.884;4.768;2023-08-01T09:38:59;8.6;;;2.7;;
58306;SDS011;44116;50.884;4.768;2023-08-01T09:40:58;5.5;;;2.4;;
58306;SDS011;44116;50.884;4.768;2023-08-01T09:43:01;5.9;;;2.3;;
58306;SDS011;44116;50.884;4.768;2023-08-01T09:44:58;8.8;;;2.5;;
58306;SDS011;44116;50.884;4.768;2023-08-01T09:46:59;8.6;;;2.7;;
58306;SDS011;44116;50.884;4.768;2023-08-01T09:49:06;9.5;;;3.1;;
58306;SDS011;44116;50.884;4.768;2023-08-01T09:51:06;8.5;;;2.7;;
58306;SDS011;44116;50.884;4.768;2023-08-01T09:53:06;10.0;;;3.3;;
58306;SDS011;44116;50.884;4.768;2023-08-01T09:54:58;8.5;;;3.0;;
58306;SDS011;44116;50.884;4.768;2023-08-01T09:56:59;11.1;;;2.9;;
58306;SDS011;44116;50.884;4.768;2023-08-01T09:58:59;9.5;;;3.1;;
58306;SDS011;44116;50.884;4.768;2023-08-01T10:00:59;8.0;;;2.9;;
58306;SDS011;44116;50.884;4.768;2023-08-01T10:05:00;10.2;;;2.8;;
58306;SDS011;44116;50.884;4.768;2023-08-01T10:06:59;10.8;;;3.0;;
58306;SDS011;44116;50.884;4.768;2023-08-01T10:08:59;6.9;;;2.9;;
58306;SDS011;44116;50.884;4.768;2023-08-01T10:13:00;8.1;;;2.8;;
58306;SDS011;44116;50.884;4.768;2023-08-01T10:14:59;7.3;;;2.5;;
58306;SDS011;44116;50.884;4.768;2023-08-01T10:16:58;8.5;;;2.7;;
58306;SDS011;44116;50.884;4.768;2023-08-01T10:18:59;6.2;;;2.2;;
58306;SDS011;44116;50.884;4.768;2023-08-01T10:20:59;7.4;;;2.8;;
58306;SDS011;44116;50.884;4.768;2023-08-01T10:22:59;7.3;;;2.6;;
58306;SDS011;44116;50.884;4.768;2023-08-01T10:24:58;6.1;;;2.5;;
58306;SDS011;44116;50.884;4.768;2023-08-01T10:28:58;6.8;;;2.4;;
58306;SDS011;44116;50.884;4.768;2023-08-01T10:34:59;8.1;;;2.7;;
58306;SDS011;44116;50.884;4.768;2023-08-01T10:36:59;6.7;;;2.5;;
58306;SDS011;44116;50.884;4.768;2023-08-01T10:39:00;7.2;;;2.7;;
58306;SDS011;44116;50.884;4.768;2023-08-01T10:40:58;5.8;;;2.3;;
58306;SDS011;44116;50.884;4.768;2023-08-01T10:42:59;9.1;;;2.4;;
58306;SDS011;44116;50.884;4.768;2023-08-01T10:44:59;7.7;;;2.8;;
58306;SDS011;44116;50.884;4.768;2023-08-01T10:48:59;7.7;;;3.2;;
58306;SDS011;44116;50.884;4.768;2023-08-01T10:50:59;7.9;;;2.8;;
58306;SDS011;44116;50.884;4.768;2023-08-01T10:55:00;6.5;;;2.7;;
58306;SDS011;44116;50.884;4.768;2023-08-01T10:56:59;7.2;;;2.5;;
58306;SDS011;44116;50.884;4.768;2023-08-01T10:58:59;6.0;;;2.7;;
58306;SDS011;44116;50.884;4.768;2023-08-01T11:00:59;7.1;;;2.6;;
58306;SDS011;44116;50.884;4.768;2023-08-01T11:05:00;6.0;;;2.3;;
58306;SDS011;44116;50.884;4.768;2023-08-01T11:06:59;11.6;;;2.8;;
58306;SDS011;44116;50.884;4.768;2023-08-01T11:08:59;8.3;;;2.7;;
58306;SDS011;44116;50.884;4.768;2023-08-01T11:10:59;7.0;;;2.2;;
58306;SDS011;44116;50.884;4.768;2023-08-01T11:15:00;7.5;;;2.9;;
58306;SDS011;44116;50.884;4.768;2023-08-01T11:16:59;7.6;;;2.6;;
58306;SDS011;44116;50.884;4.768;2023-08-01T11:21:00;7.7;;;2.5;;
58306;SDS011;44116;50.884;4.768;2023-08-01T11:23:00;6.8;;;2.1;;
58306;SDS011;44116;50.884;4.768;2023-08-01T11:25:00;7.9;;;2.2;;
58306;SDS011;44116;50.884;4.768;2023-08-01T11:27:00;7.1;;;2.4;;
58306;SDS011;44116;50.884;4.768;2023-08-01T11:29:01;17.8;;;2.6;;
58306;SDS011;44116;50.884;4.768;2023-08-01T11:33:00;8.3;;;2.5;;
58306;SDS011;44116;50.884;4.768;2023-08-01T11:35:00;5.3;;;2.3;;
58306;SDS011;44116;50.884;4.768;2023-08-01T11:37:00;6.3;;;2.0;;
58306;SDS011;44116;50.884;4.768;2023-08-01T11:39:00;5.9;;;2.3;;
58306;SDS011;44116;50.884;4.768;2023-08-01T11:43:00;9.4;;;2.2;;
58306;SDS011;44116;50.884;4.768;2023-08-01T11:47:00;7.3;;;2.1;;
58306;SDS011;44116;50.884;4.768;2023-08-01T11:49:00;9.1;;;2.2;;
58306;SDS011;44116;50.884;4.768;2023-08-01T11:51:01;11.0;;;2.3;;
58306;SDS011;44116;50.884;4.768;2023-08-01T11:55:00;5.2;;;2.1;;
58306;SDS011;44116;50.884;4.768;2023-08-01T11:57:01;7.9;;;2.3;;
58306;SDS011;44116;50.884;4.768;2023-08-01T11:59:08;6.6;;;2.6;;
58306;SDS011;44116;50.884;4.768;2023-08-01T12:01:03;6.7;;;2.5;;
58306;SDS011;44116;50.884;4.768;2023-08-01T12:03:05;7.7;;;2.4;;
58306;SDS011;44116;50.884;4.768;2023-08-01T12:05:00;9.5;;;2.5;;
58306;SDS011;44116;50.884;4.768;2023-08-01T12:07:00;7.4;;;2.4;;
58306;SDS011;44116;50.884;4.768;2023-08-01T12:09:08;6.2;;;2.5;;
58306;SDS011;44116;50.884;4.768;2023-08-01T12:11:01;8.9;;;2.4;;
58306;SDS011;44116;50.884;4.768;2023-08-01T12:13:00;7.9;;;2.6;;
58306;SDS011;44116;50.884;4.768;2023-08-01T12:19:01;8.4;;;2.7;;
58306;SDS011;44116;50.884;4.768;2023-08-01T12:21:01;7.1;;;2.4;;
58306;SDS011;44116;50.884;4.768;2023-08-01T12:23:01;7.7;;;2.3;;
58306;SDS011;44116;50.884;4.768;2023-08-01T12:27:01;8.4;;;2.5;;
58306;SDS011;44116;50.884;4.768;2023-08-01T12:29:01;9.1;;;2.7;;
58306;SDS011;44116;50.884;4.768;2023-08-01T12:31:01;7.7;;;2.4;;
58306;SDS011;44116;50.884;4.768;2023-08-01T12:33:01;8.3;;;2.3;;
58306;SDS011;44116;50.884;4.768;2023-08-01T12:35:01;8.2;;;2.5;;
58306;SDS011;44116;50.884;4.768;2023-08-01T12:37:01;9.4;;;2.8;;
58306;SDS011;44116;50.884;4.768;2023-08-01T12:39:01;9.1;;;2.4;;
58306;SDS011;44116;50.884;4.768;2023-08-01T12:41:01;6.7;;;2.5;;
58306;SDS011;44116;50.884;4.768;2023-08-01T12:43:01;7.3;;;2.2;;
58306;SDS011;44116;50.884;4.768;2023-08-01T12:45:02;7.2;;;2.4;;
58306;SDS011;44116;50.884;4.768;2023-08-01T12:47:01;6.6;;;2.0;;
58306;SDS011;44116;50.884;4.768;2023-08-01T12:49:01;6.9;;;1.9;;
58306;SDS011;44116;50.884;4.768;2023-08-01T12:51:02;6.0;;;2.1;;
58306;SDS011;44116;50.884;4.768;2023-08-01T12:53:01;5.7;;;1.7;;
58306;SDS011;44116;50.884;4.768;2023-08-01T12:55:01;5.9;;;1.9;;
58306;SDS011;44116;50.884;4.768;2023-08-01T12:59:01;6.7;;;1.7;;
58306;SDS011;44116;50.884;4.768;2023-08-01T13:01:02;6.7;;;1.9;;
58306;SDS011;44116;50.884;4.768;2023-08-01T13:03:01;5.3;;;1.6;;
58306;SDS011;44116;50.884;4.768;2023-08-01T13:05:01;6.6;;;1.8;;
58306;SDS011;44116;50.884;4.768;2023-08-01T13:07:01;11.2;;;4.0;;
58306;SDS011;44116;50.884;4.768;2023-08-01T13:09:01;7.4;;;2.2;;
58306;SDS011;44116;50.884;4.768;2023-08-01T13:11:01;6.4;;;1.9;;
58306;SDS011;44116;50.884;4.768;2023-08-01T13:13:02;22.8;;;9.7;;
58306;SDS011;44116;50.884;4.768;2023-08-01T13:15:01;7.5;;;2.0;;
58306;SDS011;44116;50.884;4.768;2023-08-01T13:17:01;6.6;;;1.9;;
58306;SDS011;44116;50.884;4.768;2023-08-01T13:21:01;6.7;;;1.5;;
58306;SDS011;44116;50.884;4.768;2023-08-01T13:23:02;5.2;;;1.7;;
58306;SDS011;44116;50.884;4.768;2023-08-01T13:25:01;5.5;;;1.4;;
58306;SDS011;44116;50.884;4.768;2023-08-01T13:27:01;7.1;;;1.8;;
58306;SDS011;44116;50.884;4.768;2023-08-01T13:31:01;4.9;;;1.5;;
58306;SDS011;44116;50.884;4.768;2023-08-01T13:33:01;4.0;;;1.8;;
58306;SDS011;44116;50.884;4.768;2023-08-01T13:35:01;3.5;;;1.4;;
58306;SDS011;44116;50.884;4.768;2023-08-01T13:37:01;4.0;;;1.6;;
58306;SDS011;44116;50.884;4.768;2023-08-01T13:39:01;6.0;;;1.5;;
58306;SDS011;44116;50.884;4.768;2023-08-01T13:41:01;5.0;;;1.6;;
58306;SDS011;44116;50.884;4.768;2023-08-01T13:43:01;4.7;;;1.5;;
58306;SDS011;44116;50.884;4.768;2023-08-01T13:45:02;6.8;;;1.9;;
58306;SDS011;44116;50.884;4.768;2023-08-01T13:47:01;5.9;;;1.5;;
58306;SDS011;44116;50.884;4.768;2023-08-01T13:49:01;6.2;;;2.2;;
58306;SDS011;44116;50.884;4.768;2023-08-01T13:51:01;5.5;;;1.8;;
58306;SDS011;44116;50.884;4.768;2023-08-01T13:53:02;7.8;;;1.7;;
58306;SDS011;44116;50.884;4.768;2023-08-01T13:55:01;6.0;;;1.8;;
58306;SDS011;44116;50.884;4.768;2023-08-01T13:57:01;6.3;;;1.7;;
58306;SDS011;44116;50.884;4.768;2023-08-01T14:01:02;4.5;;;1.8;;
58306;SDS011;44116;50.884;4.768;2023-08-01T14:03:01;4.2;;;1.9;;
58306;SDS011;44116;50.884;4.768;2023-08-01T14:05:01;5.3;;;1.7;;
58306;SDS011;44116;50.884;4.768;2023-08-01T14:07:02;8.3;;;1.8;;
58306;SDS011;44116;50.884;4.768;2023-08-01T14:09:01;5.8;;;1.9;;
58306;SDS011;44116;50.884;4.768;2023-08-01T14:11:03;5.4;;;1.5;;
58306;SDS011;44116;50.884;4.768;2023-08-01T14:13:02;5.7;;;1.8;;
58306;SDS011;44116;50.884;4.768;2023-08-01T14:17:02;6.5;;;1.9;;
58306;SDS011;44116;50.884;4.768;2023-08-01T14:19:02;6.5;;;1.7;;
58306;SDS011;44116;50.884;4.768;2023-08-01T14:21:02;6.4;;;2.2;;
58306;SDS011;44116;50.884;4.768;2023-08-01T14:23:02;5.2;;;1.8;;
58306;SDS011;44116;50.884;4.768;2023-08-01T14:27:02;6.7;;;2.0;;
58306;SDS011;44116;50.884;4.768;2023-08-01T14:29:02;7.0;;;1.9;;
58306;SDS011;44116;50.884;4.768;2023-08-01T14:31:02;6.8;;;2.1;;